createdAt,value
2022-08-30T00:01:44.895Z,97.06
2022-08-30T00:03:48.508Z,97.00
2022-08-30T00:05:52.455Z,97.16
2022-08-30T00:08:00.286Z,96.79
2022-08-30T00:10:06.094Z,97.39
2022-08-30T00:12:10.326Z,97.43
2022-08-30T00:14:13.681Z,97.06
2022-08-30T00:16:17.207Z,97.08
2022-08-30T00:18:21.459Z,97.05
2022-08-30T00:20:31.360Z,97.72
2022-08-30T00:22:34.943Z,97.29
2022-08-30T00:24:38.423Z,97.64
2022-08-30T00:26:43.135Z,97.30
2022-08-30T00:28:46.826Z,97.76
2022-08-30T00:30:50.670Z,97.71
2022-08-30T00:32:54.712Z,97.29
2022-08-30T00:34:58.115Z,97.34
2022-08-30T00:37:02.925Z,97.59
2022-08-30T00:39:07.470Z,97.95
2022-08-30T00:41:10.722Z,98.34
2022-08-30T00:43:20.258Z,98.63
2022-08-30T00:45:26.345Z,98.54
2022-08-30T00:47:29.645Z,98.41
2022-08-30T00:49:34.875Z,98.88
2022-08-30T00:51:39.577Z,98.91
2022-08-30T00:53:45.878Z,98.62
2022-08-30T00:55:50.623Z,98.93
2022-08-30T00:57:59.780Z,99.31
2022-08-30T01:00:08.488Z,99.03
2022-08-30T01:02:12.707Z,99.18
2022-08-30T01:04:17.169Z,99.20
2022-08-30T01:06:20.584Z,99.18
2022-08-30T01:08:24.087Z,99.27
2022-08-30T01:10:27.320Z,99.30
2022-08-30T01:12:31.278Z,99.29
2022-08-30T01:14:34.982Z,99.09
2022-08-30T01:16:43.440Z,98.92
2022-08-30T01:18:47.396Z,99.18
2022-08-30T01:21:02.792Z,99.67
2022-08-30T01:23:12.621Z,100.00
2022-08-30T01:25:18.706Z,100.00
2022-08-30T01:27:23.554Z,100.00
2022-08-30T01:29:27.752Z,100.00
2022-08-30T01:31:31.021Z,99.94
2022-08-30T01:33:34.385Z,100.00
2022-08-30T01:35:44.672Z,100.00
2022-08-30T01:37:48.670Z,100.00
2022-08-30T01:39:53.464Z,99.95
2022-08-30T01:41:56.762Z,100.00
2022-08-30T01:44:03.074Z,100.00
2022-08-30T01:46:06.932Z,100.00
2022-08-30T01:48:12.994Z,100.00
2022-08-30T01:50:16.805Z,100.00
2022-08-30T01:52:22.418Z,100.00
2022-08-30T01:54:27.319Z,100.00
2022-08-30T01:56:38.012Z,100.00
2022-08-30T01:58:42.005Z,100.00
2022-08-30T02:00:45.252Z,100.00
2022-08-30T02:02:49.019Z,100.00
2022-08-30T02:04:53.583Z,100.00
2022-08-30T02:06:56.901Z,100.00
2022-08-30T02:09:00.606Z,100.00
2022-08-30T02:11:04.657Z,100.00
2022-08-30T02:13:09.369Z,100.00
2022-08-30T02:15:13.097Z,100.00
2022-08-30T02:17:17.351Z,100.00
2022-08-30T02:19:20.962Z,100.00
2022-08-30T02:21:24.923Z,100.00
2022-08-30T02:23:28.431Z,100.00
2022-08-30T02:25:31.666Z,100.00
2022-08-30T02:27:35.125Z,100.00
2022-08-30T02:29:39.851Z,100.00
2022-08-30T02:31:43.173Z,100.00
2022-08-30T02:33:46.522Z,100.00
2022-08-30T02:35:50.331Z,100.00
2022-08-30T02:37:53.758Z,100.00
2022-08-30T02:39:57.065Z,100.00
2022-08-30T02:42:00.359Z,100.00
2022-08-30T02:44:04.037Z,100.00
2022-08-30T02:46:08.832Z,100.00
2022-08-30T02:48:12.355Z,100.00
2022-08-30T02:50:16.109Z,100.00
2022-08-30T02:52:20.447Z,100.00
2022-08-30T02:54:33.348Z,100.00
2022-08-30T02:56:36.789Z,100.00
2022-08-30T02:58:42.603Z,100.00
2022-08-30T03:00:46.014Z,100.00
2022-08-30T03:02:50.928Z,100.00
2022-08-30T03:04:54.721Z,100.00
2022-08-30T03:06:57.998Z,100.00
2022-08-30T03:09:01.348Z,100.00
2022-08-30T03:11:05.174Z,100.00
2022-08-30T03:13:09.106Z,100.00
2022-08-30T03:15:13.833Z,100.00
2022-08-30T03:17:17.226Z,100.00
2022-08-30T03:19:22.439Z,100.00
2022-08-30T03:21:25.907Z,100.00
2022-08-30T03:23:29.184Z,100.00
2022-08-30T03:25:33.952Z,100.00
2022-08-30T03:27:37.341Z,100.00
2022-08-30T03:29:40.681Z,100.00
2022-08-30T03:31:53.091Z,100.00
2022-08-30T03:33:56.939Z,100.00
2022-08-30T03:36:01.668Z,100.00
2022-08-30T03:38:05.948Z,100.00
2022-08-30T03:40:11.942Z,100.00
2022-08-30T03:42:15.434Z,100.00
2022-08-30T03:44:20.338Z,100.00
2022-08-30T03:46:24.734Z,100.00
2022-08-30T03:48:32.966Z,100.00
2022-08-30T03:50:37.013Z,100.00
2022-08-30T03:52:41.871Z,100.00
2022-08-30T03:54:45.169Z,100.00
2022-08-30T03:56:48.446Z,100.00
2022-08-30T03:58:51.880Z,100.00
2022-08-30T04:00:55.237Z,100.00
2022-08-30T04:02:58.556Z,100.00
2022-08-30T04:05:01.816Z,100.00
2022-08-30T04:07:05.364Z,100.00
2022-08-30T04:09:09.977Z,100.00
2022-08-30T04:11:15.072Z,100.00
2022-08-30T04:13:19.368Z,100.00
2022-08-30T04:15:22.617Z,100.00
2022-08-30T04:17:26.243Z,100.00
2022-08-30T04:19:29.588Z,100.00
2022-08-30T04:21:32.936Z,100.00
2022-08-30T04:23:40.008Z,100.00
2022-08-30T04:25:44.831Z,100.00
2022-08-30T04:27:48.269Z,100.00
2022-08-30T04:29:51.648Z,100.00
2022-08-30T04:31:59.605Z,100.00
2022-08-30T04:34:02.914Z,100.00
2022-08-30T04:36:08.286Z,100.00
2022-08-30T04:38:11.705Z,100.00
2022-08-30T04:40:15.692Z,100.00
2022-08-30T04:42:20.555Z,100.00
2022-08-30T04:44:23.852Z,100.00
2022-08-30T04:46:27.107Z,100.00
2022-08-30T04:48:30.414Z,100.00
2022-08-30T04:50:33.867Z,100.00
2022-08-30T04:52:48.512Z,100.00
2022-08-30T04:54:55.664Z,100.00
2022-08-30T04:56:59.027Z,100.00
2022-08-30T04:59:03.797Z,100.00
2022-08-30T05:01:12.734Z,100.00
2022-08-30T05:03:18.063Z,100.00
2022-08-30T05:05:39.115Z,100.00
2022-08-30T05:07:42.365Z,100.00
2022-08-30T05:09:45.660Z,100.00
2022-08-30T05:11:49.179Z,100.00
2022-08-30T05:13:52.543Z,100.00
2022-08-30T05:15:57.274Z,100.00
2022-08-30T05:18:00.660Z,100.00
2022-08-30T05:20:04.317Z,100.00
2022-08-30T05:22:07.636Z,100.00
2022-08-30T05:24:10.874Z,100.00
2022-08-30T05:26:17.188Z,99.37
2022-08-30T05:28:24.324Z,98.88
2022-08-30T05:30:29.846Z,98.25
2022-08-30T05:32:34.543Z,98.00
2022-08-30T05:34:37.918Z,97.71
2022-08-30T05:36:41.741Z,97.77
2022-08-30T05:38:46.220Z,97.54
2022-08-30T05:40:50.218Z,97.17
2022-08-30T05:42:53.686Z,96.91
2022-08-30T05:44:57.102Z,96.95
2022-08-30T05:47:00.419Z,96.85
2022-08-30T05:49:07.345Z,96.79
2022-08-30T05:51:12.744Z,96.69
2022-08-30T05:53:16.008Z,96.65
2022-08-30T05:55:19.820Z,96.74
2022-08-30T05:57:23.692Z,96.58
2022-08-30T05:59:27.208Z,96.57
2022-08-30T06:01:33.214Z,96.02
2022-08-30T06:03:36.566Z,96.26
2022-08-30T06:05:41.366Z,96.00
2022-08-30T06:07:44.959Z,96.15
2022-08-30T06:09:48.266Z,95.94
2022-08-30T06:11:51.667Z,95.40
2022-08-30T06:13:55.981Z,95.14
2022-08-30T06:15:59.353Z,94.92
2022-08-30T06:18:02.700Z,95.26
2022-08-30T06:20:07.030Z,94.60
2022-08-30T06:22:11.804Z,93.79
2022-08-30T06:24:15.168Z,93.78
2022-08-30T06:26:19.508Z,93.45
2022-08-30T06:28:22.978Z,91.26
2022-08-30T06:30:26.222Z,87.52
2022-08-30T06:32:29.551Z,84.84
2022-08-30T06:34:32.868Z,82.10
2022-08-30T06:36:36.493Z,80.05
2022-08-30T06:38:42.236Z,77.28
2022-08-30T06:40:45.617Z,75.26
2022-08-30T06:42:49.447Z,73.43
2022-08-30T06:44:52.804Z,71.77
2022-08-30T06:46:56.239Z,71.56
2022-08-30T06:49:00.497Z,70.99
2022-08-30T06:51:03.857Z,69.44
2022-08-30T06:53:07.378Z,66.75
2022-08-30T06:55:13.952Z,67.82
2022-08-30T06:57:17.939Z,68.02
2022-08-30T06:59:21.192Z,66.51
2022-08-30T07:01:26.631Z,64.30
2022-08-30T07:03:29.948Z,63.81
2022-08-30T07:05:34.233Z,62.59
2022-08-30T07:07:37.577Z,61.16
2022-08-30T07:09:43.417Z,58.50
2022-08-30T07:11:48.065Z,58.20
2022-08-30T07:13:51.347Z,57.48
2022-08-30T07:15:54.631Z,56.44
2022-08-30T07:18:15.215Z,57.80
2022-08-30T07:20:18.806Z,58.87
2022-08-30T07:22:23.065Z,59.30
2022-08-30T07:24:26.509Z,58.49
2022-08-30T07:26:33.956Z,58.69
2022-08-30T07:28:40.849Z,57.01
2022-08-30T07:30:44.587Z,56.20
2022-08-30T07:32:48.028Z,55.02
2022-08-30T07:34:51.664Z,54.08
2022-08-30T07:36:55.253Z,54.89
2022-08-30T07:38:58.978Z,53.96
2022-08-30T07:41:02.542Z,54.55
2022-08-30T07:43:06.225Z,53.74
2022-08-30T07:45:13.023Z,53.06
2022-08-30T07:47:17.053Z,53.35
2022-08-30T07:49:20.956Z,53.68
2022-08-30T07:51:27.869Z,54.07
2022-08-30T07:53:31.290Z,54.45
2022-08-30T07:55:34.989Z,55.35
2022-08-30T07:57:38.749Z,55.04
2022-08-30T07:59:42.298Z,56.58
2022-08-30T08:01:47.302Z,57.61
2022-08-30T08:03:51.661Z,57.56
2022-08-30T08:05:55.796Z,58.67
2022-08-30T08:07:59.700Z,59.41
2022-08-30T08:10:03.582Z,59.75
2022-08-30T08:12:09.056Z,60.30
2022-08-30T08:14:12.610Z,60.56
2022-08-30T08:16:16.278Z,61.07
2022-08-30T08:18:22.459Z,60.91
2022-08-30T08:20:26.406Z,61.05
2022-08-30T08:22:29.966Z,61.10
2022-08-30T08:24:33.661Z,61.01
2022-08-30T08:26:38.401Z,61.30
2022-08-30T08:28:45.222Z,61.28
2022-08-30T08:30:50.616Z,61.32
2022-08-30T08:32:54.447Z,61.35
2022-08-30T08:34:59.756Z,61.82
2022-08-30T08:37:03.562Z,62.15
2022-08-30T08:39:09.501Z,62.18
2022-08-30T08:41:25.095Z,62.47
2022-08-30T08:43:29.161Z,62.87
2022-08-30T08:45:44.563Z,63.16
2022-08-30T08:47:56.161Z,63.03
2022-08-30T08:50:06.414Z,63.16
2022-08-30T08:52:35.800Z,63.48
2022-08-30T08:54:45.559Z,63.01
2022-08-30T08:56:49.255Z,63.10
2022-08-30T08:58:55.621Z,62.39
2022-08-30T09:01:00.860Z,62.26
2022-08-30T09:03:06.196Z,61.66
2022-08-30T09:05:16.092Z,61.22
2022-08-30T09:07:24.678Z,61.29
2022-08-30T09:09:31.675Z,61.81
2022-08-30T09:11:37.377Z,62.34
2022-08-30T09:13:40.939Z,61.75
2022-08-30T09:15:44.608Z,60.97
2022-08-30T09:17:54.404Z,60.96
2022-08-30T09:20:02.732Z,60.38
2022-08-30T09:22:15.952Z,59.41
2022-08-30T09:24:20.686Z,58.82
2022-08-30T09:26:33.513Z,58.60
2022-08-30T09:28:49.411Z,58.33
2022-08-30T09:31:10.021Z,57.11
2022-08-30T09:33:21.964Z,57.81
2022-08-30T09:35:27.278Z,58.09
2022-08-30T09:37:37.423Z,57.46
2022-08-30T09:39:45.353Z,57.09
2022-08-30T09:41:50.932Z,57.04
2022-08-30T09:44:07.616Z,57.23
2022-08-30T09:46:16.402Z,56.73
2022-08-30T09:48:30.623Z,56.23
2022-08-30T09:50:38.388Z,56.37
2022-08-30T09:53:01.226Z,56.42
2022-08-30T09:55:30.967Z,57.24
2022-08-30T09:57:41.173Z,57.80
2022-08-30T09:59:50.153Z,58.09
2022-08-30T10:02:02.058Z,58.41
2022-08-30T10:04:16.995Z,59.33
2022-08-30T10:06:30.257Z,60.20
2022-08-30T10:08:40.676Z,60.91
2022-08-30T10:10:52.826Z,61.46
2022-08-30T10:13:07.855Z,61.61
2022-08-30T10:15:19.209Z,61.79
2022-08-30T10:17:39.289Z,61.90
2022-08-30T10:20:00.711Z,62.83
2022-08-30T10:22:12.495Z,63.05
2022-08-30T10:24:21.528Z,62.09
2022-08-30T10:26:30.055Z,62.40
2022-08-30T10:28:39.203Z,62.89
2022-08-30T10:30:49.121Z,62.92
2022-08-30T10:33:00.103Z,62.80
2022-08-30T10:35:09.373Z,62.83
2022-08-30T10:37:16.625Z,62.94
2022-08-30T10:39:28.194Z,62.77
2022-08-30T10:41:38.353Z,63.48
2022-08-30T10:43:51.139Z,63.36
2022-08-30T10:46:01.510Z,62.95
2022-08-30T10:48:13.148Z,63.11
2022-08-30T10:50:20.022Z,63.36
2022-08-30T10:52:31.333Z,63.36
2022-08-30T10:54:43.061Z,63.81
2022-08-30T10:56:49.857Z,63.60
2022-08-30T10:58:55.081Z,64.34
2022-08-30T11:01:12.391Z,63.54
2022-08-30T11:04:03.678Z,62.51
2022-08-30T11:06:26.467Z,62.64
2022-08-30T11:08:52.275Z,62.09
2022-08-30T11:11:08.044Z,61.39
2022-08-30T11:13:19.422Z,60.75
2022-08-30T11:15:25.402Z,60.30
2022-08-30T11:17:33.530Z,59.69
2022-08-30T11:19:39.600Z,59.86
2022-08-30T11:21:45.884Z,59.33
2022-08-30T11:24:02.459Z,59.56
2022-08-30T11:26:12.182Z,58.68
2022-08-30T11:29:02.124Z,58.43
2022-08-30T11:31:07.367Z,58.69
2022-08-30T11:33:32.512Z,58.67
2022-08-30T11:35:48.103Z,59.01
2022-08-30T11:37:52.303Z,58.93
2022-08-30T11:40:01.963Z,59.48
2022-08-30T11:42:29.574Z,59.84
2022-08-30T11:44:34.486Z,60.21
2022-08-30T11:46:40.877Z,60.38
2022-08-30T11:48:55.901Z,60.75
2022-08-30T11:51:06.799Z,59.90
2022-08-30T11:53:22.005Z,59.00
2022-08-30T11:55:54.925Z,58.64
2022-08-30T11:58:13.264Z,58.66
2022-08-30T12:00:31.536Z,59.66
2022-08-30T12:02:48.946Z,59.42
2022-08-30T12:04:56.443Z,60.18
2022-08-30T12:07:05.789Z,59.27
2022-08-30T12:09:10.815Z,58.51
2022-08-30T12:11:57.426Z,59.17
2022-08-30T12:14:04.287Z,59.69
2022-08-30T12:16:14.269Z,60.50
2022-08-30T12:18:28.370Z,59.62
2022-08-30T12:20:41.457Z,60.38
2022-08-30T12:22:45.828Z,61.06
2022-08-30T12:24:53.720Z,60.46
2022-08-30T12:27:00.565Z,59.39
2022-08-30T12:29:18.131Z,59.85
2022-08-30T12:31:25.812Z,60.61
2022-08-30T12:33:40.276Z,60.06
2022-08-30T12:35:45.801Z,60.14
2022-08-30T12:37:58.938Z,60.24
2022-08-30T12:40:03.919Z,60.76
2022-08-30T12:42:17.741Z,60.17
2022-08-30T12:44:25.793Z,59.75
2022-08-30T12:46:30.554Z,60.23
2022-08-30T12:48:37.337Z,60.56
2022-08-30T12:50:51.997Z,60.88
2022-08-30T12:53:00.487Z,60.53
2022-08-30T12:55:17.671Z,59.92
2022-08-30T12:57:40.763Z,60.50
2022-08-30T12:59:58.122Z,60.10
2022-08-30T13:02:10.393Z,60.18
2022-08-30T13:04:28.572Z,60.57
2022-08-30T13:06:45.179Z,59.00
2022-08-30T13:08:53.560Z,58.29
2022-08-30T13:11:05.797Z,58.79
2022-08-30T13:13:11.721Z,58.62
2022-08-30T13:15:28.918Z,59.28
2022-08-30T13:17:32.715Z,59.27
2022-08-30T13:19:37.951Z,59.77
2022-08-30T13:21:51.655Z,60.46
2022-08-30T13:23:59.812Z,60.83
2022-08-30T13:26:08.252Z,60.64
2022-08-30T13:28:12.368Z,60.63
2022-08-30T13:30:17.429Z,60.34
2022-08-30T13:32:22.854Z,60.45
2022-08-30T13:34:26.673Z,60.69
2022-08-30T13:36:32.520Z,61.19
2022-08-30T13:38:36.409Z,61.53
2022-08-30T13:40:40.086Z,60.72
2022-08-30T13:42:43.941Z,61.12
2022-08-30T13:44:48.171Z,61.70
2022-08-30T13:47:32.305Z,61.93
2022-08-30T13:52:09.376Z,62.51
2022-08-30T13:54:12.749Z,62.54
2022-08-30T13:56:16.870Z,63.04
2022-08-30T13:58:20.598Z,63.67
2022-08-30T14:00:25.694Z,63.75
2022-08-30T14:02:29.653Z,64.41
2022-08-30T14:04:34.894Z,65.13
2022-08-30T14:07:11.869Z,66.02
2022-08-30T14:09:04.297Z,65.91
2022-08-30T14:11:09.385Z,65.43
2022-08-30T14:13:13.536Z,66.04
2022-08-30T14:15:17.647Z,66.92
2022-08-30T14:17:21.272Z,66.52
2022-08-30T14:19:25.370Z,67.02
2022-08-30T14:21:30.698Z,67.18
2022-08-30T14:23:34.313Z,67.82
2022-08-30T14:25:37.979Z,67.73
2022-08-30T14:27:44.633Z,68.16
2022-08-30T14:29:49.706Z,67.55
2022-08-30T14:31:53.681Z,67.76
2022-08-30T14:33:57.235Z,68.22
2022-08-30T14:36:00.822Z,67.93
2022-08-30T14:38:06.513Z,68.40
2022-08-30T14:40:14.892Z,68.55
2022-08-30T14:42:20.105Z,68.97
2022-08-30T14:44:25.018Z,68.83
2022-08-30T14:46:28.665Z,68.70
2022-08-30T14:48:32.256Z,68.94
2022-08-30T14:50:36.014Z,69.98
2022-08-30T14:52:40.046Z,69.24
2022-08-30T14:54:45.070Z,69.78
2022-08-30T14:56:49.284Z,69.45
2022-08-30T14:59:00.605Z,69.88
2022-08-30T15:01:08.989Z,69.49
2022-08-30T15:03:12.915Z,68.85
2022-08-30T15:05:16.802Z,69.02
2022-08-30T15:07:20.283Z,69.02
2022-08-30T15:09:25.258Z,69.70
2022-08-30T15:11:30.243Z,70.09
2022-08-30T15:13:36.900Z,70.07
2022-08-30T15:15:43.971Z,69.87
2022-08-30T15:17:48.123Z,70.79
2022-08-30T15:19:52.629Z,71.15
2022-08-30T15:21:56.594Z,71.02
2022-08-30T15:24:00.959Z,71.88
2022-08-30T15:26:04.773Z,71.71
2022-08-30T15:28:09.917Z,72.28
2022-08-30T15:30:15.470Z,72.35
2022-08-30T15:32:23.179Z,72.43
2022-08-30T15:34:28.328Z,72.80
2022-08-30T15:36:32.500Z,72.62
2022-08-30T15:38:36.527Z,72.35
2022-08-30T15:40:40.257Z,73.30
2022-08-30T15:42:44.977Z,74.65
2022-08-30T15:44:53.730Z,76.72
2022-08-30T15:46:57.575Z,77.56
2022-08-30T15:49:03.084Z,77.60
2022-08-30T15:51:07.610Z,78.37
2022-08-30T15:53:13.407Z,76.79
2022-08-30T15:55:17.090Z,75.72
2022-08-30T15:57:20.799Z,75.61
2022-08-30T15:59:24.376Z,75.25
2022-08-30T16:01:30.541Z,74.82
2022-08-30T16:03:34.757Z,74.56
2022-08-30T16:05:41.487Z,74.82
2022-08-30T16:07:46.901Z,74.27
2022-08-30T16:09:52.281Z,73.57
2022-08-30T16:11:56.096Z,72.59
2022-08-30T16:14:00.361Z,72.15
2022-08-30T16:16:05.026Z,72.99
2022-08-30T16:18:10.291Z,73.15
2022-08-30T16:20:14.361Z,72.21
2022-08-30T16:22:22.201Z,72.28
2022-08-30T16:24:26.296Z,72.10
2022-08-30T16:26:31.389Z,71.42
2022-08-30T16:28:35.159Z,70.96
2022-08-30T16:30:38.892Z,70.82
2022-08-30T16:32:44.253Z,70.79
2022-08-30T16:34:49.916Z,71.20
2022-08-30T16:36:53.741Z,71.44
2022-08-30T16:38:58.577Z,70.94
2022-08-30T16:41:06.277Z,71.58
2022-08-30T16:43:10.410Z,71.99
2022-08-30T16:45:14.464Z,71.99
2022-08-30T16:47:18.301Z,71.80
2022-08-30T16:49:22.598Z,72.43
2022-08-30T16:51:31.576Z,72.82
2022-08-30T16:53:35.871Z,72.79
2022-08-30T16:55:41.041Z,73.67
2022-08-30T16:57:45.746Z,73.83
2022-08-30T16:59:52.456Z,73.80
2022-08-30T17:01:56.671Z,73.92
2022-08-30T17:04:00.781Z,74.05
2022-08-30T17:06:04.822Z,74.42
2022-08-30T17:08:10.127Z,74.40
2022-08-30T17:10:13.783Z,74.17
2022-08-30T17:12:17.295Z,74.51
2022-08-30T17:14:27.949Z,75.53
2022-08-30T17:16:33.475Z,76.49
2022-08-30T17:18:37.752Z,76.99
2022-08-30T17:20:41.462Z,77.88
2022-08-30T17:22:48.280Z,78.28
2022-08-30T17:24:53.568Z,78.08
2022-08-30T17:26:58.377Z,76.95
2022-08-30T17:29:02.706Z,76.76
2022-08-30T17:31:06.868Z,76.64
2022-08-30T17:33:11.587Z,76.43
2022-08-30T17:35:18.496Z,76.62
2022-08-30T17:37:22.158Z,76.38
2022-08-30T17:39:25.982Z,76.08
2022-08-30T17:41:31.034Z,76.51
2022-08-30T17:43:38.442Z,77.49
2022-08-30T17:45:42.015Z,78.05
2022-08-30T17:47:46.098Z,78.52
2022-08-30T17:49:50.280Z,78.49
2022-08-30T17:51:56.945Z,78.02
2022-08-30T17:54:00.994Z,76.94
2022-08-30T17:56:05.742Z,75.57
2022-08-30T17:58:10.791Z,76.14
2022-08-30T18:00:15.702Z,77.04
2022-08-30T18:02:22.755Z,77.27
2022-08-30T18:04:27.099Z,76.78
2022-08-30T18:06:31.279Z,76.54
2022-08-30T18:08:35.655Z,76.86
2022-08-30T18:10:39.468Z,76.23
2022-08-30T18:12:43.998Z,75.58
2022-08-30T18:14:52.814Z,73.94
2022-08-30T18:16:57.837Z,73.10
2022-08-30T18:19:01.679Z,72.27
2022-08-30T18:21:12.978Z,72.15
2022-08-30T18:23:16.872Z,71.50
2022-08-30T18:25:20.911Z,71.02
2022-08-30T18:27:24.520Z,71.50
2022-08-30T18:29:31.551Z,71.28
2022-08-30T18:31:36.496Z,71.30
2022-08-30T18:33:41.044Z,71.05
2022-08-30T18:35:48.510Z,70.69
2022-08-30T18:37:52.388Z,69.87
2022-08-30T18:39:55.933Z,69.94
2022-08-30T18:41:59.811Z,69.27
2022-08-30T18:44:26.231Z,69.46
2022-08-30T18:46:28.033Z,69.80
2022-08-30T18:48:34.719Z,69.75
2022-08-30T18:50:41.771Z,69.65
2022-08-30T18:52:45.593Z,70.05
2022-08-30T18:54:52.942Z,70.98
2022-08-30T18:56:57.123Z,71.69
2022-08-30T18:59:00.828Z,72.69
2022-08-30T19:01:06.435Z,72.61
2022-08-30T19:03:10.655Z,73.22
2022-08-30T19:05:17.423Z,73.21
2022-08-30T19:07:22.500Z,73.28
2022-08-30T19:09:32.593Z,73.29
2022-08-30T19:11:36.426Z,73.47
2022-08-30T19:13:42.002Z,73.23
2022-08-30T19:15:45.596Z,73.15
2022-08-30T19:17:49.565Z,72.77
2022-08-30T19:19:53.782Z,72.87
2022-08-30T19:21:59.801Z,73.57
2022-08-30T19:24:04.132Z,73.93
2022-08-30T19:26:08.409Z,74.04
2022-08-30T19:28:14.935Z,74.33
2022-08-30T19:30:23.997Z,74.64
2022-08-30T19:32:32.703Z,74.58
2022-08-30T19:34:36.313Z,74.88
2022-08-30T19:36:40.491Z,74.40
2022-08-30T19:38:45.764Z,74.75
2022-08-30T19:40:54.427Z,74.65
2022-08-30T19:42:59.657Z,74.94
2022-08-30T19:45:03.475Z,75.26
2022-08-30T19:47:09.747Z,75.39
2022-08-30T19:49:14.490Z,75.49
2022-08-30T19:51:18.178Z,75.40
2022-08-30T19:53:22.996Z,75.78
2022-08-30T19:55:31.275Z,75.80
2022-08-30T19:57:35.534Z,75.85
2022-08-30T19:59:39.851Z,75.79
2022-08-30T20:01:43.966Z,76.00
2022-08-30T20:03:51.929Z,76.38
2022-08-30T20:05:56.473Z,76.60
2022-08-30T20:08:00.893Z,76.72
2022-08-30T20:10:06.571Z,77.21
2022-08-30T20:12:12.287Z,77.64
2022-08-30T20:14:16.443Z,78.55
2022-08-30T20:16:20.734Z,78.73
2022-08-30T20:18:37.710Z,79.32
2022-08-30T20:20:42.359Z,79.86
2022-08-30T20:22:54.402Z,80.08
2022-08-30T20:24:58.302Z,80.22
2022-08-30T20:27:03.980Z,80.84
2022-08-30T20:29:10.098Z,81.19
2022-08-30T20:31:14.101Z,81.83
2022-08-30T20:33:18.328Z,82.22
2022-08-30T20:35:23.959Z,82.64
2022-08-30T20:37:30.135Z,83.15
2022-08-30T20:39:34.443Z,83.87
2022-08-30T20:41:40.109Z,84.17
2022-08-30T20:43:48.536Z,84.29
2022-08-30T20:45:55.583Z,84.62
2022-08-30T20:47:59.574Z,85.25
2022-08-30T20:50:06.933Z,85.74
2022-08-30T20:52:18.528Z,85.39
2022-08-30T20:54:22.437Z,85.84
2022-08-30T20:56:29.747Z,86.14
2022-08-30T20:58:33.362Z,86.11
2022-08-30T21:00:37.757Z,86.74
2022-08-30T21:02:46.837Z,87.50
2022-08-30T21:04:52.338Z,88.37
2022-08-30T21:06:56.341Z,88.48
2022-08-30T21:09:00.581Z,89.06
2022-08-30T21:11:04.377Z,89.08
2022-08-30T21:13:08.455Z,89.58
2022-08-30T21:15:34.403Z,90.33
2022-08-30T21:17:37.064Z,90.48
2022-08-30T21:19:45.887Z,90.64
2022-08-30T21:21:49.688Z,91.09
2022-08-30T21:23:54.729Z,91.12
2022-08-30T21:25:58.886Z,91.50
2022-08-30T21:28:02.634Z,92.22
2022-08-30T21:30:07.640Z,92.03
2022-08-30T21:32:11.649Z,92.55
2022-08-30T21:34:17.231Z,92.86
2022-08-30T21:36:42.319Z,92.70
2022-08-30T21:38:46.447Z,93.01
2022-08-30T21:40:50.616Z,93.30
2022-08-30T21:42:54.677Z,92.59
2022-08-30T21:44:58.928Z,92.69
2022-08-30T21:47:02.769Z,92.61
2022-08-30T21:49:09.136Z,92.92
2022-08-30T21:51:13.704Z,93.56
2022-08-30T21:53:19.467Z,93.46
2022-08-30T21:55:23.525Z,93.68
2022-08-30T21:57:27.797Z,94.04
2022-08-30T21:59:31.285Z,93.96
2022-08-30T22:01:37.544Z,93.88
2022-08-30T22:03:42.783Z,93.95
2022-08-30T22:05:52.949Z,93.65
2022-08-30T22:07:57.103Z,93.66
2022-08-30T22:10:02.336Z,93.68
2022-08-30T22:12:07.428Z,93.91
2022-08-30T22:14:13.626Z,94.26
2022-08-30T22:16:19.701Z,94.77
2022-08-30T22:18:23.912Z,94.87
2022-08-30T22:20:30.397Z,94.49
2022-08-30T22:22:34.669Z,94.77
2022-08-30T22:24:40.514Z,94.95
2022-08-30T22:26:46.754Z,94.47
2022-08-30T22:28:51.070Z,94.15
2022-08-30T22:30:55.222Z,94.37
2022-08-30T22:32:59.183Z,94.56
2022-08-30T22:35:02.931Z,94.41
2022-08-30T22:37:07.488Z,94.46
2022-08-30T22:39:11.841Z,94.66
2022-08-30T22:41:18.223Z,94.89
2022-08-30T22:43:23.933Z,94.86
2022-08-30T22:45:28.242Z,94.87
2022-08-30T22:47:33.469Z,95.03
2022-08-30T22:49:37.354Z,95.24
2022-08-30T22:51:42.888Z,95.02
2022-08-30T22:53:46.763Z,94.74
2022-08-30T22:55:50.830Z,94.56
2022-08-30T22:57:55.393Z,94.17
2022-08-30T23:00:01.319Z,94.08
2022-08-30T23:02:05.514Z,94.32
2022-08-30T23:04:10.187Z,94.04
2022-08-30T23:06:14.248Z,93.24
2022-08-30T23:08:18.201Z,93.93
2022-08-30T23:10:28.509Z,93.63
2022-08-30T23:12:32.641Z,93.41
2022-08-30T23:14:36.844Z,93.89
2022-08-30T23:16:42.245Z,93.76
2022-08-30T23:18:47.947Z,93.49
2022-08-30T23:20:51.955Z,93.49
2022-08-30T23:23:00.637Z,93.25
2022-08-30T23:25:21.533Z,92.58
2022-08-30T23:27:46.251Z,92.18
2022-08-30T23:30:07.506Z,92.08
2022-08-30T23:32:30.693Z,92.29
2022-08-30T23:34:52.393Z,91.96
2022-08-30T23:37:13.738Z,92.10
2022-08-30T23:39:35.488Z,91.92
2022-08-30T23:41:56.976Z,91.94
2022-08-30T23:44:18.358Z,92.00
2022-08-30T23:46:39.813Z,91.85
2022-08-30T23:49:02.192Z,92.18
2022-08-30T23:51:24.007Z,91.98
2022-08-30T23:53:45.105Z,92.00
2022-08-30T23:56:06.810Z,92.34
2022-08-30T23:58:30.236Z,92.36
